Terminal Aerodrome Forecast
Issued by NWS Cleveland, OH

Home | Current Version | Previous Version | Graphics & Text | Print | Product List | Glossary Off
Versions: 1 2 3 4 5 6 7 8 9 10 11 12 13 14 15 16 17 18 19 20 21 22 23 24 25

000
FTUS41 KCLE 231331 AAB
TAFCLE
TAF AMD
KCLE 231331Z 2314/2418 25005KT P6SM SCT040
     FM231500 30005KT P6SM SKC
     FM232130 36005KT P6SM SKC
     FM240200 VRB03KT P6SM SKC
     FM241300 21007KT P6SM SKC=

USA.gov is the U.S. government's official web portal to all federal, state and local government web resources and services.